createdAt,value
2019-03-15T00:01:44.098Z,90.90
2019-03-15T00:04:12.682Z,90.70
2019-03-15T00:06:41.301Z,90.80
2019-03-15T00:09:10.405Z,90.90
2019-03-15T00:11:39.052Z,90.90
2019-03-15T00:14:07.635Z,90.90
2019-03-15T00:16:36.219Z,90.80
2019-03-15T00:19:05.264Z,90.80
2019-03-15T00:21:33.855Z,90.90
2019-03-15T00:24:02.474Z,91.00
2019-03-15T00:26:31.148Z,91.00
2019-03-15T00:29:00.017Z,91.00
2019-03-15T00:31:28.577Z,91.00
2019-03-15T00:33:57.162Z,90.90
2019-03-15T00:36:25.723Z,91.00
2019-03-15T00:38:54.508Z,90.90
2019-03-15T00:41:23.043Z,90.90
2019-03-15T00:43:51.812Z,90.90
2019-03-15T00:46:20.372Z,91.10
2019-03-15T00:48:49.161Z,91.10
2019-03-15T00:51:17.792Z,90.90
2019-03-15T00:53:46.386Z,90.80
2019-03-15T00:56:15.076Z,90.80
2019-03-15T00:58:43.620Z,90.80
2019-03-15T01:01:13.639Z,90.90
2019-03-15T01:03:42.325Z,90.90
2019-03-15T01:06:10.906Z,90.70
2019-03-15T01:08:39.750Z,90.60
2019-03-15T01:11:08.637Z,90.60
2019-03-15T01:13:37.256Z,90.40
2019-03-15T01:16:06.066Z,90.40
2019-03-15T01:18:35.132Z,90.40
2019-03-15T01:21:03.730Z,90.20
2019-03-15T01:23:32.307Z,90.20
2019-03-15T01:26:00.938Z,90.30
2019-03-15T01:28:34.615Z,90.30
2019-03-15T01:31:03.201Z,90.30
2019-03-15T01:33:31.809Z,90.40
2019-03-15T01:36:00.417Z,90.40
2019-03-15T01:38:29.076Z,90.40
2019-03-15T01:40:57.675Z,90.50
2019-03-15T01:43:26.257Z,90.60
2019-03-15T01:45:54.807Z,90.40
2019-03-15T01:48:23.396Z,90.40
2019-03-15T01:50:51.977Z,90.40
2019-03-15T01:53:20.521Z,90.20
2019-03-15T01:55:49.110Z,90.20
2019-03-15T01:58:17.658Z,90.20
2019-03-15T02:00:46.239Z,90.20
2019-03-15T02:03:14.804Z,90.30
2019-03-15T02:05:43.510Z,90.20
2019-03-15T02:08:12.065Z,90.30
2019-03-15T02:10:40.855Z,90.70
2019-03-15T02:13:09.518Z,90.40
2019-03-15T02:15:38.046Z,90.20
2019-03-15T02:18:06.710Z,90.20
2019-03-15T02:20:35.270Z,90.20
2019-03-15T02:23:03.837Z,89.90
2019-03-15T02:25:32.518Z,89.90
2019-03-15T02:28:01.115Z,90.00
2019-03-15T02:30:29.795Z,90.10
2019-03-15T02:32:58.407Z,89.90
2019-03-15T02:35:26.953Z,90.20
2019-03-15T02:37:55.545Z,90.10
2019-03-15T02:40:24.131Z,90.30
2019-03-15T02:42:53.238Z,89.70
2019-03-15T02:45:22.061Z,89.80
2019-03-15T02:47:50.679Z,89.70
2019-03-15T02:50:19.517Z,89.90
2019-03-15T02:52:48.333Z,90.30
2019-03-15T02:55:26.002Z,90.10
2019-03-15T02:57:54.672Z,90.00
2019-03-15T03:00:23.272Z,90.10
2019-03-15T03:02:51.980Z,89.80
2019-03-15T03:05:20.598Z,89.70
2019-03-15T03:07:49.335Z,89.60
2019-03-15T03:10:18.123Z,89.60
2019-03-15T03:12:46.708Z,90.00
2019-03-15T03:15:15.239Z,90.00
2019-03-15T03:17:43.963Z,90.00
2019-03-15T03:20:12.737Z,89.40
2019-03-15T03:22:41.294Z,90.00
2019-03-15T03:25:09.974Z,89.90
2019-03-15T03:27:38.522Z,89.20
2019-03-15T03:30:09.584Z,88.90
2019-03-15T03:32:38.141Z,88.80
2019-03-15T03:35:09.589Z,89.60
2019-03-15T03:37:37.759Z,88.90
2019-03-15T03:40:08.321Z,88.70
2019-03-15T03:42:36.989Z,88.90
2019-03-15T03:45:07.111Z,88.60
2019-03-15T03:47:35.662Z,88.30
2019-03-15T03:50:07.318Z,88.40
2019-03-15T03:52:36.173Z,88.40
2019-03-15T03:55:05.950Z,88.50
2019-03-15T03:57:34.622Z,88.70
2019-03-15T04:00:04.833Z,88.30
2019-03-15T04:02:34.031Z,88.90
2019-03-15T04:05:02.924Z,88.90
2019-03-15T04:07:31.570Z,89.00
2019-03-15T04:10:00.377Z,89.50
2019-03-15T04:12:29.290Z,89.80
2019-03-15T04:14:57.852Z,89.80
2019-03-15T04:17:26.472Z,90.00
2019-03-15T04:19:55.241Z,90.30
2019-03-15T04:22:23.786Z,90.10
2019-03-15T04:24:52.434Z,90.40
2019-03-15T04:27:21.162Z,90.50
2019-03-15T04:29:49.823Z,90.50
2019-03-15T04:32:18.390Z,90.40
2019-03-15T04:34:47.003Z,90.60
2019-03-15T04:37:15.659Z,90.90
2019-03-15T04:39:44.298Z,90.90
2019-03-15T04:42:12.982Z,90.90
2019-03-15T04:44:41.534Z,90.60
2019-03-15T04:47:10.346Z,90.60
2019-03-15T04:49:39.111Z,90.80
2019-03-15T04:52:07.809Z,90.60
2019-03-15T04:54:36.358Z,90.40
2019-03-15T04:57:05.025Z,90.20
2019-03-15T04:59:33.650Z,90.10
2019-03-15T05:02:02.319Z,90.10
2019-03-15T05:04:30.940Z,90.10
2019-03-15T05:06:59.486Z,90.20
2019-03-15T05:09:28.070Z,90.30
2019-03-15T05:11:56.752Z,90.10
2019-03-15T05:14:25.334Z,90.00
2019-03-15T05:16:54.039Z,90.10
2019-03-15T05:19:22.726Z,90.10
2019-03-15T05:21:51.542Z,90.10
2019-03-15T05:24:20.187Z,90.10
2019-03-15T05:26:48.874Z,90.10
2019-03-15T05:29:17.527Z,90.30
2019-03-15T05:31:46.111Z,90.10
2019-03-15T05:34:14.834Z,90.30
2019-03-15T05:36:43.418Z,90.40
2019-03-15T05:39:11.993Z,90.50
2019-03-15T05:41:40.607Z,90.30
2019-03-15T05:44:09.158Z,90.20
2019-03-15T05:46:37.760Z,89.40
2019-03-15T05:49:06.344Z,90.30
2019-03-15T05:51:34.887Z,90.30
2019-03-15T05:54:03.548Z,90.30
2019-03-15T05:56:32.111Z,90.40
2019-03-15T05:59:00.740Z,89.40
2019-03-15T06:01:29.554Z,90.50
2019-03-15T06:03:58.189Z,90.40
2019-03-15T06:06:26.770Z,90.50
2019-03-15T06:08:55.355Z,90.60
2019-03-15T06:11:23.983Z,90.40
2019-03-15T06:13:52.559Z,90.50
2019-03-15T06:16:21.142Z,90.50
2019-03-15T06:18:50.204Z,90.60
2019-03-15T06:21:18.863Z,90.50
2019-03-15T06:23:49.435Z,90.40
2019-03-15T06:26:17.702Z,90.20
2019-03-15T06:28:46.282Z,90.50
2019-03-15T06:31:14.933Z,91.00
2019-03-15T06:33:43.499Z,90.90
2019-03-15T06:36:12.102Z,91.10
2019-03-15T06:38:40.887Z,91.40
2019-03-15T06:41:09.475Z,91.50
2019-03-15T06:43:38.078Z,91.50
2019-03-15T06:46:06.937Z,91.60
2019-03-15T06:48:35.846Z,91.80
2019-03-15T06:51:09.003Z,91.90
2019-03-15T06:53:35.926Z,92.10
2019-03-15T06:56:04.946Z,92.20
2019-03-15T06:58:33.529Z,92.40
2019-03-15T07:01:02.162Z,92.10
2019-03-15T07:03:31.031Z,92.10
2019-03-15T07:05:59.702Z,92.20
2019-03-15T07:08:28.302Z,92.20
2019-03-15T07:10:56.988Z,92.30
2019-03-15T07:13:25.613Z,92.20
2019-03-15T07:15:55.323Z,92.30
2019-03-15T07:18:23.906Z,92.30
2019-03-15T07:20:52.566Z,92.10
2019-03-15T07:23:22.699Z,92.20
2019-03-15T07:25:51.267Z,92.10
2019-03-15T07:28:19.865Z,92.20
2019-03-15T07:30:48.584Z,92.30
2019-03-15T07:33:17.431Z,92.50
2019-03-15T07:35:46.021Z,92.40
2019-03-15T07:38:14.651Z,92.20
2019-03-15T07:40:43.247Z,92.20
2019-03-15T07:43:11.872Z,92.20
2019-03-15T07:45:40.588Z,92.10
2019-03-15T07:48:21.646Z,92.20
2019-03-15T07:50:39.575Z,92.30
2019-03-15T07:53:08.166Z,92.10
2019-03-15T07:55:36.889Z,92.20
2019-03-15T07:58:07.498Z,92.20
2019-03-15T08:00:37.353Z,92.20
2019-03-15T08:03:11.220Z,92.20
2019-03-15T08:05:41.382Z,91.80
2019-03-15T08:08:10.170Z,92.00
2019-03-15T08:10:38.877Z,92.00
2019-03-15T08:15:42.148Z,92.10
2019-03-15T08:18:10.901Z,92.20
2019-03-15T08:20:39.666Z,92.20
2019-03-15T08:23:09.768Z,92.30
2019-03-15T08:25:40.286Z,92.20
2019-03-15T08:28:10.662Z,92.10
2019-03-15T08:30:39.273Z,92.40
2019-03-15T08:33:10.546Z,92.40
2019-03-15T08:35:38.366Z,92.40
2019-03-15T08:38:07.046Z,92.50
2019-03-15T08:40:38.706Z,92.60
2019-03-15T08:43:07.274Z,92.60
2019-03-15T08:45:35.974Z,92.60
2019-03-15T08:48:04.898Z,92.70
2019-03-15T08:50:33.659Z,92.90
2019-03-15T08:53:02.442Z,92.60
2019-03-15T08:55:30.983Z,92.50
2019-03-15T08:58:13.025Z,92.30
2019-03-15T09:00:30.134Z,92.40
2019-03-15T09:02:58.722Z,92.20
2019-03-15T09:05:28.494Z,92.60
2019-03-15T09:07:57.058Z,92.00
2019-03-15T09:10:27.339Z,91.90
2019-03-15T09:12:57.801Z,91.80
2019-03-15T09:15:45.767Z,91.80
2019-03-15T09:18:15.069Z,91.80
2019-03-15T09:20:43.941Z,92.00
2019-03-15T09:23:16.929Z,92.00
2019-03-15T09:25:45.743Z,92.00
2019-03-15T09:28:14.717Z,92.10
2019-03-15T09:30:43.455Z,92.10
2019-03-15T09:33:12.686Z,92.10
2019-03-15T09:35:41.457Z,92.10
2019-03-15T09:38:10.611Z,92.30
2019-03-15T09:40:41.982Z,92.10
2019-03-15T09:43:10.762Z,92.10
2019-03-15T09:45:39.492Z,92.30
2019-03-15T09:48:08.214Z,92.50
2019-03-15T09:50:50.500Z,92.70
2019-03-15T09:53:07.371Z,92.70
2019-03-15T09:55:36.130Z,92.70
2019-03-15T09:58:06.370Z,92.90
2019-03-15T10:00:35.040Z,92.90
2019-03-15T10:03:03.706Z,92.80
2019-03-15T10:05:32.540Z,92.80
2019-03-15T10:08:01.103Z,92.80
2019-03-15T10:10:29.887Z,92.60
2019-03-15T10:13:05.667Z,92.80
2019-03-15T10:15:29.095Z,92.80
2019-03-15T10:17:57.666Z,92.80
2019-03-15T10:20:28.165Z,92.80
2019-03-15T10:23:05.264Z,92.80
2019-03-15T10:25:26.940Z,93.00
2019-03-15T10:27:57.063Z,93.30
2019-03-15T10:30:25.747Z,93.00
2019-03-15T10:32:54.306Z,93.10
2019-03-15T10:35:23.133Z,93.20
2019-03-15T10:37:51.776Z,93.20
2019-03-15T10:40:22.401Z,93.30
2019-03-15T10:42:50.949Z,93.40
2019-03-15T10:45:19.622Z,93.50
2019-03-15T10:47:48.288Z,93.40
2019-03-15T10:50:18.630Z,93.60
2019-03-15T10:53:06.522Z,93.50
2019-03-15T10:55:35.270Z,93.60
2019-03-15T10:58:03.892Z,93.80
2019-03-15T11:00:32.994Z,93.90
2019-03-15T11:03:01.553Z,94.00
2019-03-15T11:05:30.117Z,94.00
2019-03-15T11:07:58.745Z,94.10
2019-03-15T11:10:27.515Z,94.10
2019-03-15T11:12:56.106Z,94.10
2019-03-15T11:15:24.768Z,94.20
2019-03-15T11:17:53.496Z,94.20
2019-03-15T11:20:22.080Z,94.30
2019-03-15T11:22:50.770Z,94.30
2019-03-15T11:25:19.406Z,94.40
2019-03-15T11:27:48.112Z,94.50
2019-03-15T11:30:16.830Z,94.50
2019-03-15T11:32:45.474Z,94.60
2019-03-15T11:35:14.591Z,94.60
2019-03-15T11:37:43.143Z,94.70
2019-03-15T11:40:15.009Z,94.70
2019-03-15T11:42:43.500Z,94.70
2019-03-15T11:45:13.716Z,94.80
2019-03-15T11:48:01.306Z,94.70
2019-03-15T11:50:18.435Z,95.00
2019-03-15T11:52:47.547Z,95.10
2019-03-15T11:55:16.181Z,95.30
2019-03-15T11:57:44.858Z,95.20
2019-03-15T12:00:22.369Z,95.10
2019-03-15T12:03:10.538Z,95.00
2019-03-15T12:05:40.398Z,95.10
2019-03-15T12:08:09.053Z,95.30
2019-03-15T12:10:37.601Z,95.40
2019-03-15T12:13:06.325Z,95.40
2019-03-15T12:15:36.326Z,95.40
2019-03-15T12:18:08.200Z,95.40
2019-03-15T12:20:35.832Z,95.50
2019-03-15T12:23:04.415Z,95.50
2019-03-15T12:25:32.965Z,95.50
2019-03-15T12:28:01.802Z,95.50
2019-03-15T12:30:30.470Z,95.60
2019-03-15T12:33:00.119Z,95.60
2019-03-15T12:35:28.734Z,95.80
2019-03-15T12:37:57.410Z,95.80
2019-03-15T12:40:25.991Z,96.00
2019-03-15T12:42:54.692Z,96.10
2019-03-15T12:45:23.409Z,96.10
2019-03-15T12:47:51.954Z,96.10
2019-03-15T12:50:20.554Z,96.10
2019-03-15T12:52:49.582Z,96.10
2019-03-15T12:55:18.301Z,96.20
2019-03-15T12:57:49.150Z,96.20
2019-03-15T13:00:19.707Z,96.20
2019-03-15T13:02:48.425Z,96.30
2019-03-15T13:05:17.034Z,96.30
2019-03-15T13:07:45.724Z,96.40
2019-03-15T13:10:19.609Z,96.50
2019-03-15T13:12:48.284Z,96.40
2019-03-15T13:15:17.477Z,96.80
2019-03-15T13:17:46.430Z,96.40
2019-03-15T13:20:16.942Z,96.50
2019-03-15T13:22:45.869Z,96.60
2019-03-15T13:25:14.535Z,96.60
2019-03-15T13:27:43.168Z,96.60
2019-03-15T13:30:13.620Z,96.70
2019-03-15T13:32:42.582Z,96.70
2019-03-15T13:35:11.768Z,96.80
2019-03-15T13:37:42.910Z,96.80
2019-03-15T13:40:20.552Z,96.80
2019-03-15T13:42:49.357Z,96.90
2019-03-15T13:45:18.071Z,96.80
2019-03-15T13:47:46.766Z,96.90
2019-03-15T13:50:19.902Z,96.90
2019-03-15T13:52:48.475Z,96.90
2019-03-15T13:55:17.145Z,96.90
2019-03-15T13:57:45.816Z,96.90
2019-03-15T14:00:17.694Z,96.90
2019-03-15T14:02:46.419Z,96.90
2019-03-15T14:05:15.164Z,97.00
2019-03-15T14:07:43.967Z,96.80
2019-03-15T14:10:14.870Z,96.80
2019-03-15T14:12:43.636Z,96.80
2019-03-15T14:15:14.521Z,97.20
2019-03-15T14:17:43.256Z,96.90
2019-03-15T14:20:14.917Z,97.00
2019-03-15T14:22:43.526Z,97.00
2019-03-15T14:25:17.253Z,96.80
2019-03-15T14:27:46.138Z,96.90
2019-03-15T14:30:15.342Z,97.00
2019-03-15T14:32:44.375Z,96.90
2019-03-15T14:35:13.111Z,97.00
2019-03-15T14:37:42.005Z,97.00
2019-03-15T14:40:11.778Z,96.90
2019-03-15T14:42:41.033Z,96.90
2019-03-15T14:45:29.534Z,97.10
2019-03-15T14:47:58.402Z,97.10
2019-03-15T14:50:27.129Z,97.20
2019-03-15T14:52:57.278Z,97.20
2019-03-15T14:55:26.029Z,97.20
2019-03-15T14:57:55.966Z,97.20
2019-03-15T15:00:24.696Z,97.10
2019-03-15T15:02:53.370Z,97.20
2019-03-15T15:05:21.990Z,97.10
2019-03-15T15:07:50.681Z,97.10
2019-03-15T15:10:19.719Z,97.10
2019-03-15T15:12:48.383Z,97.10
2019-03-15T15:15:18.962Z,97.10
2019-03-15T15:17:48.149Z,97.00
2019-03-15T15:20:17.267Z,97.10
2019-03-15T15:22:46.064Z,97.10
2019-03-15T15:25:16.269Z,97.10
2019-03-15T15:27:44.999Z,97.00
2019-03-15T15:30:17.673Z,97.00
2019-03-15T15:32:46.375Z,97.10
2019-03-15T15:35:15.499Z,97.00
2019-03-15T15:37:44.085Z,97.00
2019-03-15T15:40:17.910Z,97.00
2019-03-15T15:42:46.695Z,97.00
2019-03-15T15:45:15.431Z,97.00
2019-03-15T15:47:44.259Z,97.00
2019-03-15T15:50:14.588Z,97.10
2019-03-15T15:52:43.388Z,97.00
2019-03-15T15:55:15.950Z,96.90
2019-03-15T15:57:44.880Z,96.90
2019-03-15T16:00:16.621Z,96.80
2019-03-15T16:02:45.313Z,96.70
2019-03-15T16:05:14.363Z,96.60
2019-03-15T16:07:43.055Z,96.50
2019-03-15T16:10:17.185Z,96.40
2019-03-15T16:12:44.268Z,96.40
2019-03-15T16:15:14.557Z,96.50
2019-03-15T16:17:45.421Z,96.40
2019-03-15T16:20:13.822Z,96.20
2019-03-15T16:22:42.543Z,96.10
2019-03-15T16:25:11.913Z,96.00
2019-03-15T16:27:40.514Z,95.90
2019-03-15T16:30:17.204Z,95.80
2019-03-15T16:32:46.082Z,95.80
2019-03-15T16:35:16.908Z,95.80
2019-03-15T16:37:45.522Z,95.80
2019-03-15T16:40:15.637Z,95.60
2019-03-15T16:42:44.298Z,95.70
2019-03-15T16:45:21.309Z,95.60
2019-03-15T16:47:50.058Z,95.60
2019-03-15T16:50:38.060Z,95.40
2019-03-15T16:53:07.030Z,95.30
2019-03-15T16:55:38.339Z,95.10
2019-03-15T16:58:07.299Z,95.10
2019-03-15T17:00:35.874Z,95.20
2019-03-15T17:03:04.618Z,95.20
2019-03-15T17:05:52.643Z,95.10
2019-03-15T17:08:21.397Z,94.90
2019-03-15T17:10:51.703Z,95.10
2019-03-15T17:13:20.382Z,94.90
2019-03-15T17:15:49.419Z,95.00
2019-03-15T17:18:18.011Z,95.10
2019-03-15T17:20:46.731Z,95.20
2019-03-15T17:23:15.334Z,95.40
2019-03-15T17:25:44.003Z,95.30
2019-03-15T17:28:12.753Z,95.40
2019-03-15T17:30:41.307Z,95.40
2019-03-15T17:33:10.206Z,95.50
2019-03-15T17:35:38.829Z,95.50
2019-03-15T17:38:07.421Z,95.50
2019-03-15T17:40:36.226Z,95.50
2019-03-15T17:43:06.807Z,95.50
2019-03-15T17:45:35.507Z,95.50
2019-03-15T17:48:04.233Z,95.60
2019-03-15T17:50:34.335Z,95.70
2019-03-15T17:53:02.966Z,95.80
2019-03-15T17:55:31.566Z,95.90
2019-03-15T17:58:00.160Z,95.90
2019-03-15T18:00:45.240Z,96.00
2019-03-15T18:03:21.491Z,96.00
2019-03-15T18:05:44.680Z,95.80
2019-03-15T18:08:13.347Z,95.90
2019-03-15T18:10:43.743Z,95.90
2019-03-15T18:13:12.308Z,95.90
2019-03-15T18:15:40.972Z,96.00
2019-03-15T18:18:09.619Z,95.90
2019-03-15T18:20:38.387Z,96.10
2019-03-15T18:23:07.190Z,96.30
2019-03-15T18:25:35.780Z,96.10
2019-03-15T18:28:04.408Z,96.20
2019-03-15T18:30:33.057Z,96.30
2019-03-15T18:33:01.842Z,96.20
2019-03-15T18:35:33.948Z,96.20
2019-03-15T18:38:01.059Z,96.30
2019-03-15T18:40:30.020Z,96.40
2019-03-15T18:42:59.044Z,96.50
2019-03-15T18:45:27.662Z,96.40
2019-03-15T18:47:56.288Z,96.40
2019-03-15T18:50:28.486Z,96.40
2019-03-15T18:52:57.175Z,96.40
2019-03-15T18:55:26.003Z,96.30
2019-03-15T18:57:54.767Z,96.40
2019-03-15T19:00:25.453Z,96.50
2019-03-15T19:02:54.061Z,96.40
2019-03-15T19:05:22.824Z,96.40
2019-03-15T19:07:51.570Z,96.50
2019-03-15T19:10:20.250Z,96.50
2019-03-15T19:12:48.888Z,96.60
2019-03-15T19:15:21.998Z,96.70
2019-03-15T19:17:50.832Z,96.60
2019-03-15T19:20:20.178Z,96.50
2019-03-15T19:22:50.111Z,96.50
2019-03-15T19:25:19.082Z,96.40
2019-03-15T19:27:47.742Z,96.50
2019-03-15T19:30:19.454Z,96.40
2019-03-15T19:32:48.154Z,96.40
2019-03-15T19:35:17.946Z,96.30
2019-03-15T19:37:46.637Z,96.30
2019-03-15T19:40:19.664Z,96.20
2019-03-15T19:42:48.326Z,96.20
2019-03-15T19:45:36.339Z,96.20
2019-03-15T19:48:05.009Z,96.00
2019-03-15T19:50:33.762Z,96.30
2019-03-15T19:53:02.403Z,96.30
2019-03-15T19:55:31.196Z,96.10
2019-03-15T19:57:59.751Z,96.20
2019-03-15T20:00:28.450Z,96.10
2019-03-15T20:02:57.555Z,96.10
2019-03-15T20:05:26.242Z,96.10
2019-03-15T20:07:54.732Z,96.00
2019-03-15T20:10:23.459Z,96.10
2019-03-15T20:12:52.097Z,96.20
2019-03-15T20:15:20.718Z,96.00
2019-03-15T20:17:49.313Z,96.10
2019-03-15T20:20:19.013Z,96.00
2019-03-15T20:22:47.945Z,96.10
2019-03-15T20:25:17.519Z,96.10
2019-03-15T20:27:46.107Z,96.00
2019-03-15T20:30:21.560Z,96.00
2019-03-15T20:32:47.991Z,96.30
2019-03-15T20:35:16.616Z,96.30
2019-03-15T20:37:45.254Z,96.40
2019-03-15T20:40:14.628Z,96.40
2019-03-15T20:42:45.004Z,96.60
2019-03-15T20:45:16.250Z,96.30
2019-03-15T20:47:44.836Z,96.40
2019-03-15T20:50:14.153Z,96.40
2019-03-15T20:52:42.885Z,96.50
2019-03-15T20:55:11.624Z,96.70
2019-03-15T20:57:40.210Z,96.40
2019-03-15T21:00:35.402Z,96.30
2019-03-15T21:02:58.322Z,96.40
2019-03-15T21:05:26.921Z,96.50
2019-03-15T21:07:55.538Z,96.70
2019-03-15T21:10:24.106Z,96.70
2019-03-15T21:12:52.859Z,96.70
2019-03-15T21:15:21.525Z,96.60
2019-03-15T21:17:50.187Z,96.80
2019-03-15T21:20:22.587Z,96.80
2019-03-15T21:22:50.659Z,96.80
2019-03-15T21:25:19.253Z,96.80
2019-03-15T21:28:07.279Z,97.00
2019-03-15T21:30:47.850Z,96.80
2019-03-15T21:33:06.551Z,96.80
2019-03-15T21:35:35.222Z,96.80
2019-03-15T21:38:03.862Z,96.90
2019-03-15T21:40:32.446Z,96.90
2019-03-15T21:43:01.047Z,96.90
2019-03-15T21:45:29.596Z,97.20
2019-03-15T21:47:58.181Z,96.90
2019-03-15T21:50:26.867Z,97.00
2019-03-15T21:52:55.632Z,96.90
2019-03-15T21:55:24.217Z,97.00
2019-03-15T21:57:52.847Z,96.90
2019-03-15T22:00:21.714Z,97.00
2019-03-15T22:02:50.339Z,97.00
2019-03-15T22:05:18.975Z,97.00
2019-03-15T22:07:47.614Z,97.00
2019-03-15T22:10:17.205Z,96.90
2019-03-15T22:12:45.889Z,96.90
2019-03-15T22:15:14.553Z,97.10
2019-03-15T22:17:43.266Z,97.00
2019-03-15T22:20:16.639Z,97.00
2019-03-15T22:22:45.296Z,97.00
2019-03-15T22:25:14.030Z,96.90
2019-03-15T22:27:42.683Z,96.90
2019-03-15T22:30:17.002Z,96.90
2019-03-15T22:32:45.586Z,96.80
2019-03-15T22:35:14.305Z,97.10
2019-03-15T22:37:42.875Z,97.00
2019-03-15T22:40:13.059Z,96.90
2019-03-15T22:42:43.550Z,96.90
2019-03-15T22:45:13.575Z,96.70
2019-03-15T22:47:42.246Z,96.80
2019-03-15T22:50:20.506Z,96.80
2019-03-15T22:52:49.079Z,96.70
2019-03-15T22:55:17.808Z,96.80
2019-03-15T22:57:58.919Z,96.70
2019-03-15T23:00:27.373Z,96.70
2019-03-15T23:02:55.971Z,96.50
2019-03-15T23:05:24.983Z,96.50
2019-03-15T23:07:53.573Z,96.50
2019-03-15T23:10:22.517Z,96.50
2019-03-15T23:12:51.331Z,96.50
2019-03-15T23:15:20.061Z,96.60
2019-03-15T23:17:48.655Z,96.40
2019-03-15T23:20:18.004Z,96.30
2019-03-15T23:22:46.480Z,96.40
2019-03-15T23:25:15.065Z,96.40
2019-03-15T23:27:43.619Z,96.40
2019-03-15T23:30:16.610Z,96.40
2019-03-15T23:32:45.238Z,96.30
2019-03-15T23:35:13.866Z,96.40
2019-03-15T23:37:42.418Z,96.20
2019-03-15T23:40:14.664Z,96.30
2019-03-15T23:42:43.302Z,96.20
2019-03-15T23:45:12.370Z,96.20
2019-03-15T23:47:41.079Z,96.10
2019-03-15T23:50:14.343Z,96.20
2019-03-15T23:52:43.336Z,96.20
2019-03-15T23:55:12.484Z,96.20
2019-03-15T23:57:41.053Z,96.20
